sensor_id;sensor_type;location;lat;lon;timestamp;P1;durP1;ratioP1;P2;durP2;ratioP2
55330;SDS011;58851;42.984;20.336;2023-01-24T00:01:11;51.53;;;29.92;;
55330;SDS011;58851;42.984;20.336;2023-01-24T00:03:37;57.22;;;32.03;;
55330;SDS011;58851;42.984;20.336;2023-01-24T00:06:02;106.68;;;46.13;;
55330;SDS011;58851;42.984;20.336;2023-01-24T00:08:28;121.28;;;51.95;;
55330;SDS011;58851;42.984;20.336;2023-01-24T00:10:58;172.43;;;72.85;;
55330;SDS011;58851;42.984;20.336;2023-01-24T00:13:28;51.05;;;34.55;;
55330;SDS011;58851;42.984;20.336;2023-01-24T00:16:27;51.67;;;33.85;;
55330;SDS011;58851;42.984;20.336;2023-01-24T00:18:47;43.85;;;30.30;;
55330;SDS011;58851;42.984;20.336;2023-01-24T00:21:14;71.72;;;40.60;;
55330;SDS011;58851;42.984;20.336;2023-01-24T00:23:42;159.18;;;74.38;;
55330;SDS011;58851;42.984;20.336;2023-01-24T00:26:11;106.57;;;58.45;;
55330;SDS011;58851;42.984;20.336;2023-01-24T00:28:38;49.38;;;32.58;;
55330;SDS011;58851;42.984;20.336;2023-01-24T00:31:04;134.43;;;64.35;;
55330;SDS011;58851;42.984;20.336;2023-01-24T00:33:30;114.00;;;62.67;;
55330;SDS011;58851;42.984;20.336;2023-01-24T00:35:56;67.85;;;44.00;;
55330;SDS011;58851;42.984;20.336;2023-01-24T00:38:22;98.47;;;62.17;;
55330;SDS011;58851;42.984;20.336;2023-01-24T00:40:48;90.25;;;56.05;;
55330;SDS011;58851;42.984;20.336;2023-01-24T00:43:14;69.05;;;44.83;;
55330;SDS011;58851;42.984;20.336;2023-01-24T00:45:40;62.78;;;40.08;;
55330;SDS011;58851;42.984;20.336;2023-01-24T00:48:07;56.95;;;35.22;;
55330;SDS011;58851;42.984;20.336;2023-01-24T00:50:34;103.00;;;51.88;;
55330;SDS011;58851;42.984;20.336;2023-01-24T00:53:00;99.60;;;51.13;;
55330;SDS011;58851;42.984;20.336;2023-01-24T00:55:26;33.60;;;21.17;;
55330;SDS011;58851;42.984;20.336;2023-01-24T00:57:52;31.70;;;21.15;;
55330;SDS011;58851;42.984;20.336;2023-01-24T01:00:18;33.58;;;23.60;;
55330;SDS011;58851;42.984;20.336;2023-01-24T01:02:44;61.00;;;34.58;;
55330;SDS011;58851;42.984;20.336;2023-01-24T01:05:12;70.43;;;38.72;;
55330;SDS011;58851;42.984;20.336;2023-01-24T01:07:37;47.47;;;28.73;;
55330;SDS011;58851;42.984;20.336;2023-01-24T01:10:03;36.47;;;22.65;;
55330;SDS011;58851;42.984;20.336;2023-01-24T01:12:29;26.63;;;18.30;;
55330;SDS011;58851;42.984;20.336;2023-01-24T01:14:55;29.60;;;21.90;;
55330;SDS011;58851;42.984;20.336;2023-01-24T01:17:21;40.78;;;27.52;;
55330;SDS011;58851;42.984;20.336;2023-01-24T01:19:50;38.22;;;27.35;;
55330;SDS011;58851;42.984;20.336;2023-01-24T01:22:16;45.65;;;29.15;;
55330;SDS011;58851;42.984;20.336;2023-01-24T01:24:42;48.80;;;30.73;;
55330;SDS011;58851;42.984;20.336;2023-01-24T01:27:08;71.75;;;40.58;;
55330;SDS011;58851;42.984;20.336;2023-01-24T01:29:34;65.97;;;38.38;;
55330;SDS011;58851;42.984;20.336;2023-01-24T01:32:00;41.33;;;27.80;;
55330;SDS011;58851;42.984;20.336;2023-01-24T01:34:26;47.90;;;32.22;;
55330;SDS011;58851;42.984;20.336;2023-01-24T01:36:52;68.35;;;42.42;;
55330;SDS011;58851;42.984;20.336;2023-01-24T01:39:17;73.10;;;44.38;;
55330;SDS011;58851;42.984;20.336;2023-01-24T01:41:43;121.38;;;69.95;;
55330;SDS011;58851;42.984;20.336;2023-01-24T01:44:42;78.68;;;49.47;;
55330;SDS011;58851;42.984;20.336;2023-01-24T01:47:06;66.13;;;41.72;;
55330;SDS011;58851;42.984;20.336;2023-01-24T01:49:44;69.70;;;43.20;;
55330;SDS011;58851;42.984;20.336;2023-01-24T01:52:15;73.32;;;46.28;;
55330;SDS011;58851;42.984;20.336;2023-01-24T01:54:42;118.65;;;68.22;;
55330;SDS011;58851;42.984;20.336;2023-01-24T01:59:49;96.05;;;55.80;;
55330;SDS011;58851;42.984;20.336;2023-01-24T02:02:20;115.05;;;66.78;;
55330;SDS011;58851;42.984;20.336;2023-01-24T02:04:48;95.88;;;59.47;;
55330;SDS011;58851;42.984;20.336;2023-01-24T02:07:20;72.78;;;47.13;;
55330;SDS011;58851;42.984;20.336;2023-01-24T02:09:54;75.60;;;46.13;;
55330;SDS011;58851;42.984;20.336;2023-01-24T02:12:30;64.25;;;40.78;;
55330;SDS011;58851;42.984;20.336;2023-01-24T02:15:02;56.10;;;36.65;;
55330;SDS011;58851;42.984;20.336;2023-01-24T02:17:50;45.50;;;30.30;;
55330;SDS011;58851;42.984;20.336;2023-01-24T02:25:46;65.80;;;42.60;;
55330;SDS011;58851;42.984;20.336;2023-01-24T02:28:18;95.45;;;61.13;;
55330;SDS011;58851;42.984;20.336;2023-01-24T02:30:43;111.13;;;69.60;;
55330;SDS011;58851;42.984;20.336;2023-01-24T02:33:13;105.63;;;68.93;;
55330;SDS011;58851;42.984;20.336;2023-01-24T02:35:44;93.85;;;60.40;;
55330;SDS011;58851;42.984;20.336;2023-01-24T02:38:16;107.57;;;63.17;;
55330;SDS011;58851;42.984;20.336;2023-01-24T02:40:45;128.98;;;74.70;;
55330;SDS011;58851;42.984;20.336;2023-01-24T02:43:14;105.90;;;64.53;;
55330;SDS011;58851;42.984;20.336;2023-01-24T02:45:42;88.25;;;51.33;;
55330;SDS011;58851;42.984;20.336;2023-01-24T02:48:08;75.22;;;48.88;;
55330;SDS011;58851;42.984;20.336;2023-01-24T02:50:34;113.50;;;66.85;;
55330;SDS011;58851;42.984;20.336;2023-01-24T02:53:18;71.07;;;43.22;;
55330;SDS011;58851;42.984;20.336;2023-01-24T02:56:04;79.18;;;48.33;;
55330;SDS011;58851;42.984;20.336;2023-01-24T02:58:51;110.90;;;65.72;;
55330;SDS011;58851;42.984;20.336;2023-01-24T03:01:22;119.28;;;76.05;;
55330;SDS011;58851;42.984;20.336;2023-01-24T03:03:48;134.63;;;89.43;;
55330;SDS011;58851;42.984;20.336;2023-01-24T03:06:21;153.82;;;98.28;;
55330;SDS011;58851;42.984;20.336;2023-01-24T03:08:47;159.45;;;100.97;;
55330;SDS011;58851;42.984;20.336;2023-01-24T03:11:13;153.90;;;98.18;;
55330;SDS011;58851;42.984;20.336;2023-01-24T03:13:38;172.75;;;110.45;;
55330;SDS011;58851;42.984;20.336;2023-01-24T03:16:22;158.80;;;101.13;;
55330;SDS011;58851;42.984;20.336;2023-01-24T03:19:07;142.25;;;95.13;;
55330;SDS011;58851;42.984;20.336;2023-01-24T03:21:51;145.43;;;94.35;;
55330;SDS011;58851;42.984;20.336;2023-01-24T03:24:35;373.42;;;203.23;;
55330;SDS011;58851;42.984;20.336;2023-01-24T03:27:19;394.63;;;217.57;;
55330;SDS011;58851;42.984;20.336;2023-01-24T03:30:04;215.05;;;125.28;;
55330;SDS011;58851;42.984;20.336;2023-01-24T03:32:49;155.27;;;98.80;;
55330;SDS011;58851;42.984;20.336;2023-01-24T03:35:33;128.75;;;86.10;;
55330;SDS011;58851;42.984;20.336;2023-01-24T03:37:59;131.50;;;83.60;;
55330;SDS011;58851;42.984;20.336;2023-01-24T03:40:43;117.97;;;75.40;;
55330;SDS011;58851;42.984;20.336;2023-01-24T03:43:10;102.15;;;69.88;;
55330;SDS011;58851;42.984;20.336;2023-01-24T03:45:36;88.97;;;60.65;;
55330;SDS011;58851;42.984;20.336;2023-01-24T03:48:07;85.72;;;58.92;;
55330;SDS011;58851;42.984;20.336;2023-01-24T03:50:38;105.97;;;68.00;;
55330;SDS011;58851;42.984;20.336;2023-01-24T03:53:27;124.32;;;78.40;;
55330;SDS011;58851;42.984;20.336;2023-01-24T03:55:56;129.85;;;80.57;;
55330;SDS011;58851;42.984;20.336;2023-01-24T03:58:24;108.40;;;68.13;;
55330;SDS011;58851;42.984;20.336;2023-01-24T04:00:52;124.88;;;72.90;;
55330;SDS011;58851;42.984;20.336;2023-01-24T04:03:18;119.22;;;71.85;;
55330;SDS011;58851;42.984;20.336;2023-01-24T04:05:48;96.88;;;56.45;;
55330;SDS011;58851;42.984;20.336;2023-01-24T04:08:15;42.42;;;28.25;;
55330;SDS011;58851;42.984;20.336;2023-01-24T04:10:41;36.38;;;25.50;;
55330;SDS011;58851;42.984;20.336;2023-01-24T04:13:08;50.42;;;34.83;;
55330;SDS011;58851;42.984;20.336;2023-01-24T04:15:35;54.92;;;35.80;;
55330;SDS011;58851;42.984;20.336;2023-01-24T04:18:03;36.75;;;24.70;;
55330;SDS011;58851;42.984;20.336;2023-01-24T04:20:31;47.97;;;28.50;;
55330;SDS011;58851;42.984;20.336;2023-01-24T04:23:03;86.22;;;42.53;;
55330;SDS011;58851;42.984;20.336;2023-01-24T04:25:30;102.80;;;54.40;;
55330;SDS011;58851;42.984;20.336;2023-01-24T04:27:56;86.88;;;50.13;;
55330;SDS011;58851;42.984;20.336;2023-01-24T04:30:22;84.30;;;50.20;;
55330;SDS011;58851;42.984;20.336;2023-01-24T04:32:48;84.47;;;49.55;;
55330;SDS011;58851;42.984;20.336;2023-01-24T04:35:20;91.30;;;56.00;;
55330;SDS011;58851;42.984;20.336;2023-01-24T04:37:48;114.22;;;65.18;;
55330;SDS011;58851;42.984;20.336;2023-01-24T04:40:14;81.35;;;48.50;;
55330;SDS011;58851;42.984;20.336;2023-01-24T04:42:40;66.95;;;44.40;;
55330;SDS011;58851;42.984;20.336;2023-01-24T04:45:07;47.28;;;33.40;;
55330;SDS011;58851;42.984;20.336;2023-01-24T04:47:34;40.40;;;26.65;;
55330;SDS011;58851;42.984;20.336;2023-01-24T04:50:00;35.78;;;22.63;;
55330;SDS011;58851;42.984;20.336;2023-01-24T04:52:26;28.42;;;18.30;;
55330;SDS011;58851;42.984;20.336;2023-01-24T04:54:51;12.30;;;9.63;;
55330;SDS011;58851;42.984;20.336;2023-01-24T04:57:17;11.50;;;9.50;;
55330;SDS011;58851;42.984;20.336;2023-01-24T04:59:43;19.58;;;13.98;;
55330;SDS011;58851;42.984;20.336;2023-01-24T05:02:09;20.73;;;16.73;;
55330;SDS011;58851;42.984;20.336;2023-01-24T05:04:35;23.58;;;16.67;;
55330;SDS011;58851;42.984;20.336;2023-01-24T05:07:01;21.88;;;15.00;;
55330;SDS011;58851;42.984;20.336;2023-01-24T05:09:27;21.38;;;17.13;;
55330;SDS011;58851;42.984;20.336;2023-01-24T05:11:52;35.90;;;25.27;;
55330;SDS011;58851;42.984;20.336;2023-01-24T05:14:18;28.33;;;22.23;;
55330;SDS011;58851;42.984;20.336;2023-01-24T05:16:44;36.65;;;28.52;;
55330;SDS011;58851;42.984;20.336;2023-01-24T05:19:09;84.65;;;54.45;;
55330;SDS011;58851;42.984;20.336;2023-01-24T05:21:35;120.88;;;73.95;;
55330;SDS011;58851;42.984;20.336;2023-01-24T05:24:01;150.82;;;93.70;;
55330;SDS011;58851;42.984;20.336;2023-01-24T05:26:28;117.90;;;76.15;;
55330;SDS011;58851;42.984;20.336;2023-01-24T05:28:54;101.13;;;66.88;;
55330;SDS011;58851;42.984;20.336;2023-01-24T05:31:20;129.27;;;81.55;;
55330;SDS011;58851;42.984;20.336;2023-01-24T05:33:46;116.75;;;81.53;;
55330;SDS011;58851;42.984;20.336;2023-01-24T05:36:13;115.93;;;73.60;;
55330;SDS011;58851;42.984;20.336;2023-01-24T05:38:40;125.30;;;80.10;;
55330;SDS011;58851;42.984;20.336;2023-01-24T05:41:08;120.93;;;80.05;;
55330;SDS011;58851;42.984;20.336;2023-01-24T05:43:35;80.03;;;56.35;;
55330;SDS011;58851;42.984;20.336;2023-01-24T05:46:05;75.57;;;55.22;;
55330;SDS011;58851;42.984;20.336;2023-01-24T05:48:36;86.45;;;58.70;;
55330;SDS011;58851;42.984;20.336;2023-01-24T05:51:03;103.03;;;67.95;;
55330;SDS011;58851;42.984;20.336;2023-01-24T05:53:31;100.93;;;67.85;;
55330;SDS011;58851;42.984;20.336;2023-01-24T05:55:59;105.85;;;75.63;;
55330;SDS011;58851;42.984;20.336;2023-01-24T05:58:26;116.00;;;79.05;;
55330;SDS011;58851;42.984;20.336;2023-01-24T06:00:54;116.30;;;80.50;;
55330;SDS011;58851;42.984;20.336;2023-01-24T06:03:20;114.30;;;81.90;;
55330;SDS011;58851;42.984;20.336;2023-01-24T06:05:50;119.18;;;86.55;;
55330;SDS011;58851;42.984;20.336;2023-01-24T06:08:17;122.13;;;84.78;;
55330;SDS011;58851;42.984;20.336;2023-01-24T06:10:44;141.27;;;93.18;;
55330;SDS011;58851;42.984;20.336;2023-01-24T06:13:10;135.95;;;91.63;;
55330;SDS011;58851;42.984;20.336;2023-01-24T06:15:37;134.88;;;86.55;;
55330;SDS011;58851;42.984;20.336;2023-01-24T06:18:04;146.85;;;88.43;;
55330;SDS011;58851;42.984;20.336;2023-01-24T06:20:30;149.90;;;94.22;;
55330;SDS011;58851;42.984;20.336;2023-01-24T06:23:02;73.32;;;45.28;;
55330;SDS011;58851;42.984;20.336;2023-01-24T06:25:31;21.95;;;15.20;;
55330;SDS011;58851;42.984;20.336;2023-01-24T06:27:57;23.48;;;16.92;;
55330;SDS011;58851;42.984;20.336;2023-01-24T06:30:24;23.38;;;13.05;;
55330;SDS011;58851;42.984;20.336;2023-01-24T06:38:23;19.83;;;13.25;;
55330;SDS011;58851;42.984;20.336;2023-01-24T06:40:53;12.63;;;9.18;;
55330;SDS011;58851;42.984;20.336;2023-01-24T06:43:21;12.68;;;9.93;;
55330;SDS011;58851;42.984;20.336;2023-01-24T06:45:47;31.48;;;22.35;;
55330;SDS011;58851;42.984;20.336;2023-01-24T06:48:13;24.05;;;16.92;;
55330;SDS011;58851;42.984;20.336;2023-01-24T06:50:39;31.70;;;21.73;;
55330;SDS011;58851;42.984;20.336;2023-01-24T06:53:05;24.38;;;16.50;;
55330;SDS011;58851;42.984;20.336;2023-01-24T06:55:33;27.27;;;19.35;;
55330;SDS011;58851;42.984;20.336;2023-01-24T06:57:59;28.00;;;18.63;;
55330;SDS011;58851;42.984;20.336;2023-01-24T07:00:26;43.00;;;27.50;;
55330;SDS011;58851;42.984;20.336;2023-01-24T07:03:00;29.00;;;19.77;;
55330;SDS011;58851;42.984;20.336;2023-01-24T07:05:28;29.67;;;18.65;;
55330;SDS011;58851;42.984;20.336;2023-01-24T07:07:54;21.00;;;15.95;;
55330;SDS011;58851;42.984;20.336;2023-01-24T07:10:20;57.33;;;39.60;;
55330;SDS011;58851;42.984;20.336;2023-01-24T07:12:46;110.30;;;73.80;;
55330;SDS011;58851;42.984;20.336;2023-01-24T07:15:12;179.93;;;117.90;;
55330;SDS011;58851;42.984;20.336;2023-01-24T07:17:38;103.88;;;69.95;;
55330;SDS011;58851;42.984;20.336;2023-01-24T07:20:05;35.28;;;26.52;;
55330;SDS011;58851;42.984;20.336;2023-01-24T07:22:31;41.10;;;30.50;;
55330;SDS011;58851;42.984;20.336;2023-01-24T07:24:57;95.30;;;64.35;;
55330;SDS011;58851;42.984;20.336;2023-01-24T07:27:23;103.80;;;76.15;;
55330;SDS011;58851;42.984;20.336;2023-01-24T07:30:06;63.35;;;48.72;;
55330;SDS011;58851;42.984;20.336;2023-01-24T07:32:47;66.80;;;52.63;;
55330;SDS011;58851;42.984;20.336;2023-01-24T07:35:13;27.08;;;21.63;;
55330;SDS011;58851;42.984;20.336;2023-01-24T07:37:40;20.15;;;13.95;;
55330;SDS011;58851;42.984;20.336;2023-01-24T07:40:06;26.02;;;18.15;;
55330;SDS011;58851;42.984;20.336;2023-01-24T07:42:32;15.68;;;11.88;;
55330;SDS011;58851;42.984;20.336;2023-01-24T07:44:58;30.73;;;22.77;;
55330;SDS011;58851;42.984;20.336;2023-01-24T07:47:24;31.92;;;21.45;;
55330;SDS011;58851;42.984;20.336;2023-01-24T07:49:51;47.38;;;29.60;;
55330;SDS011;58851;42.984;20.336;2023-01-24T07:52:17;22.35;;;17.27;;
55330;SDS011;58851;42.984;20.336;2023-01-24T07:54:43;22.65;;;16.35;;
55330;SDS011;58851;42.984;20.336;2023-01-24T07:57:09;35.28;;;23.42;;
55330;SDS011;58851;42.984;20.336;2023-01-24T07:59:34;33.22;;;23.90;;
55330;SDS011;58851;42.984;20.336;2023-01-24T08:02:00;29.95;;;23.15;;
55330;SDS011;58851;42.984;20.336;2023-01-24T08:04:26;9.15;;;7.32;;
55330;SDS011;58851;42.984;20.336;2023-01-24T08:06:51;20.42;;;15.75;;
55330;SDS011;58851;42.984;20.336;2023-01-24T08:09:56;16.83;;;12.40;;
55330;SDS011;58851;42.984;20.336;2023-01-24T08:12:21;18.33;;;12.40;;
55330;SDS011;58851;42.984;20.336;2023-01-24T08:14:47;18.67;;;13.32;;
55330;SDS011;58851;42.984;20.336;2023-01-24T08:17:13;12.57;;;8.90;;
55330;SDS011;58851;42.984;20.336;2023-01-24T08:19:39;17.35;;;10.05;;
55330;SDS011;58851;42.984;20.336;2023-01-24T08:22:05;12.80;;;9.05;;
55330;SDS011;58851;42.984;20.336;2023-01-24T08:24:31;12.75;;;9.52;;
55330;SDS011;58851;42.984;20.336;2023-01-24T08:27:00;10.25;;;8.20;;
55330;SDS011;58851;42.984;20.336;2023-01-24T08:29:27;5.07;;;4.15;;
55330;SDS011;58851;42.984;20.336;2023-01-24T08:31:53;7.25;;;5.88;;
55330;SDS011;58851;42.984;20.336;2023-01-24T08:34:20;10.52;;;7.90;;
55330;SDS011;58851;42.984;20.336;2023-01-24T08:36:46;20.45;;;15.80;;
55330;SDS011;58851;42.984;20.336;2023-01-24T08:39:12;17.17;;;12.75;;
55330;SDS011;58851;42.984;20.336;2023-01-24T08:41:37;12.70;;;10.48;;
55330;SDS011;58851;42.984;20.336;2023-01-24T08:44:04;28.30;;;23.33;;
55330;SDS011;58851;42.984;20.336;2023-01-24T08:46:30;18.33;;;15.50;;
55330;SDS011;58851;42.984;20.336;2023-01-24T08:48:56;14.63;;;11.20;;
55330;SDS011;58851;42.984;20.336;2023-01-24T08:51:22;10.80;;;8.73;;
55330;SDS011;58851;42.984;20.336;2023-01-24T08:53:49;13.38;;;10.32;;
55330;SDS011;58851;42.984;20.336;2023-01-24T08:56:14;18.92;;;12.52;;
55330;SDS011;58851;42.984;20.336;2023-01-24T08:58:40;26.23;;;19.40;;
55330;SDS011;58851;42.984;20.336;2023-01-24T09:01:07;23.55;;;19.48;;
55330;SDS011;58851;42.984;20.336;2023-01-24T09:03:33;18.15;;;16.20;;
55330;SDS011;58851;42.984;20.336;2023-01-24T09:05:59;19.13;;;16.60;;
55330;SDS011;58851;42.984;20.336;2023-01-24T09:08:25;23.50;;;19.42;;
55330;SDS011;58851;42.984;20.336;2023-01-24T09:10:51;43.58;;;26.73;;
55330;SDS011;58851;42.984;20.336;2023-01-24T09:13:17;30.30;;;20.88;;
55330;SDS011;58851;42.984;20.336;2023-01-24T09:15:43;31.38;;;19.60;;
55330;SDS011;58851;42.984;20.336;2023-01-24T09:18:09;12.20;;;10.15;;
55330;SDS011;58851;42.984;20.336;2023-01-24T09:20:34;28.48;;;22.20;;
55330;SDS011;58851;42.984;20.336;2023-01-24T09:23:07;10.73;;;9.23;;
55330;SDS011;58851;42.984;20.336;2023-01-24T09:25:34;11.35;;;9.23;;
55330;SDS011;58851;42.984;20.336;2023-01-24T09:28:00;8.98;;;7.15;;
55330;SDS011;58851;42.984;20.336;2023-01-24T09:30:25;6.97;;;5.88;;
55330;SDS011;58851;42.984;20.336;2023-01-24T09:32:51;9.43;;;7.43;;
55330;SDS011;58851;42.984;20.336;2023-01-24T09:35:17;11.43;;;7.25;;
55330;SDS011;58851;42.984;20.336;2023-01-24T09:37:43;18.52;;;12.50;;
55330;SDS011;58851;42.984;20.336;2023-01-24T09:40:35;13.88;;;10.32;;
55330;SDS011;58851;42.984;20.336;2023-01-24T09:46:05;18.25;;;15.23;;
55330;SDS011;58851;42.984;20.336;2023-01-24T09:48:35;42.70;;;29.13;;
55330;SDS011;58851;42.984;20.336;2023-01-24T09:51:05;37.58;;;25.08;;
55330;SDS011;58851;42.984;20.336;2023-01-24T09:53:41;26.98;;;21.02;;
55330;SDS011;58851;42.984;20.336;2023-01-24T09:56:51;19.48;;;17.33;;
55330;SDS011;58851;42.984;20.336;2023-01-24T10:02:13;34.07;;;20.83;;
55330;SDS011;58851;42.984;20.336;2023-01-24T10:04:42;15.60;;;11.48;;
55330;SDS011;58851;42.984;20.336;2023-01-24T10:07:31;24.42;;;18.17;;
55330;SDS011;58851;42.984;20.336;2023-01-24T10:13:33;29.20;;;19.42;;
55330;SDS011;58851;42.984;20.336;2023-01-24T10:19:16;12.77;;;9.35;;
55330;SDS011;58851;42.984;20.336;2023-01-24T10:25:06;9.07;;;6.63;;
55330;SDS011;58851;42.984;20.336;2023-01-24T10:27:42;17.75;;;12.88;;
55330;SDS011;58851;42.984;20.336;2023-01-24T10:30:14;16.13;;;11.60;;
55330;SDS011;58851;42.984;20.336;2023-01-24T10:33:01;17.20;;;11.70;;
55330;SDS011;58851;42.984;20.336;2023-01-24T10:35:30;19.75;;;16.00;;
55330;SDS011;58851;42.984;20.336;2023-01-24T10:38:19;18.88;;;14.55;;
55330;SDS011;58851;42.984;20.336;2023-01-24T10:40:52;20.27;;;16.17;;
55330;SDS011;58851;42.984;20.336;2023-01-24T10:43:29;10.00;;;8.88;;
55330;SDS011;58851;42.984;20.336;2023-01-24T10:49:28;24.65;;;19.25;;
55330;SDS011;58851;42.984;20.336;2023-01-24T10:52:08;23.55;;;19.65;;
55330;SDS011;58851;42.984;20.336;2023-01-24T10:54:42;12.98;;;11.10;;
55330;SDS011;58851;42.984;20.336;2023-01-24T11:02:31;9.45;;;8.18;;
55330;SDS011;58851;42.984;20.336;2023-01-24T11:05:06;10.77;;;9.68;;
55330;SDS011;58851;42.984;20.336;2023-01-24T11:07:36;17.17;;;14.13;;
55330;SDS011;58851;42.984;20.336;2023-01-24T11:10:17;15.52;;;10.82;;
55330;SDS011;58851;42.984;20.336;2023-01-24T11:12:55;18.55;;;15.48;;
55330;SDS011;58851;42.984;20.336;2023-01-24T11:15:29;18.60;;;13.77;;
55330;SDS011;58851;42.984;20.336;2023-01-24T11:17:59;12.77;;;8.88;;
55330;SDS011;58851;42.984;20.336;2023-01-24T11:20:33;40.95;;;25.95;;
55330;SDS011;58851;42.984;20.336;2023-01-24T11:25:53;241.93;;;129.35;;
55330;SDS011;58851;42.984;20.336;2023-01-24T11:28:28;207.93;;;133.85;;
55330;SDS011;58851;42.984;20.336;2023-01-24T11:30:56;23.05;;;17.67;;
55330;SDS011;58851;42.984;20.336;2023-01-24T11:39:36;17.73;;;13.05;;
55330;SDS011;58851;42.984;20.336;2023-01-24T11:48:22;40.72;;;27.25;;
55330;SDS011;58851;42.984;20.336;2023-01-24T11:51:11;46.67;;;30.70;;
55330;SDS011;58851;42.984;20.336;2023-01-24T11:57:00;21.30;;;16.73;;
55330;SDS011;58851;42.984;20.336;2023-01-24T11:59:45;26.10;;;16.95;;
55330;SDS011;58851;42.984;20.336;2023-01-24T12:13:18;26.15;;;15.77;;
55330;SDS011;58851;42.984;20.336;2023-01-24T12:18:47;41.50;;;22.67;;
55330;SDS011;58851;42.984;20.336;2023-01-24T12:21:31;60.55;;;27.70;;
55330;SDS011;58851;42.984;20.336;2023-01-24T12:24:01;14.90;;;11.48;;
55330;SDS011;58851;42.984;20.336;2023-01-24T12:26:44;26.08;;;19.25;;
55330;SDS011;58851;42.984;20.336;2023-01-24T12:32:01;21.75;;;15.80;;
55330;SDS011;58851;42.984;20.336;2023-01-24T12:45:45;20.02;;;15.75;;
55330;SDS011;58851;42.984;20.336;2023-01-24T12:54:21;19.60;;;15.82;;
55330;SDS011;58851;42.984;20.336;2023-01-24T13:00:12;25.38;;;21.30;;
55330;SDS011;58851;42.984;20.336;2023-01-24T13:08:04;45.47;;;20.50;;
55330;SDS011;58851;42.984;20.336;2023-01-24T13:24:31;15.10;;;12.18;;
55330;SDS011;58851;42.984;20.336;2023-01-24T13:34:40;15.23;;;11.80;;
55330;SDS011;58851;42.984;20.336;2023-01-24T13:37:16;16.77;;;13.45;;
55330;SDS011;58851;42.984;20.336;2023-01-24T13:39:42;16.58;;;11.50;;
55330;SDS011;58851;42.984;20.336;2023-01-24T13:44:42;14.57;;;12.00;;
55330;SDS011;58851;42.984;20.336;2023-01-24T13:49:38;28.10;;;21.38;;
55330;SDS011;58851;42.984;20.336;2023-01-24T13:54:59;18.63;;;16.60;;
55330;SDS011;58851;42.984;20.336;2023-01-24T13:57:26;23.33;;;16.02;;
55330;SDS011;58851;42.984;20.336;2023-01-24T14:02:36;29.65;;;23.73;;
55330;SDS011;58851;42.984;20.336;2023-01-24T14:07:55;22.10;;;17.37;;
55330;SDS011;58851;42.984;20.336;2023-01-24T14:10:37;22.98;;;17.58;;
55330;SDS011;58851;42.984;20.336;2023-01-24T14:16:09;25.30;;;18.85;;
55330;SDS011;58851;42.984;20.336;2023-01-24T14:21:23;19.58;;;15.52;;
55330;SDS011;58851;42.984;20.336;2023-01-24T14:23:56;26.75;;;20.10;;
55330;SDS011;58851;42.984;20.336;2023-01-24T14:26:26;25.38;;;19.35;;
55330;SDS011;58851;42.984;20.336;2023-01-24T14:29:00;25.88;;;20.30;;
55330;SDS011;58851;42.984;20.336;2023-01-24T14:31:32;26.67;;;21.42;;
55330;SDS011;58851;42.984;20.336;2023-01-24T14:36:46;22.08;;;16.10;;
55330;SDS011;58851;42.984;20.336;2023-01-24T14:39:25;36.38;;;25.63;;
55330;SDS011;58851;42.984;20.336;2023-01-24T14:49:25;35.55;;;22.13;;
55330;SDS011;58851;42.984;20.336;2023-01-24T14:54:48;35.92;;;25.00;;
55330;SDS011;58851;42.984;20.336;2023-01-24T14:57:20;30.95;;;20.70;;
55330;SDS011;58851;42.984;20.336;2023-01-24T15:02:26;30.90;;;24.15;;
55330;SDS011;58851;42.984;20.336;2023-01-24T15:04:52;32.83;;;24.73;;
55330;SDS011;58851;42.984;20.336;2023-01-24T15:07:18;27.20;;;21.67;;
55330;SDS011;58851;42.984;20.336;2023-01-24T15:09:44;29.55;;;23.80;;
55330;SDS011;58851;42.984;20.336;2023-01-24T15:12:51;31.83;;;24.27;;
55330;SDS011;58851;42.984;20.336;2023-01-24T15:15:00;32.38;;;23.35;;
55330;SDS011;58851;42.984;20.336;2023-01-24T15:17:28;31.88;;;23.58;;
55330;SDS011;58851;42.984;20.336;2023-01-24T15:20:05;39.50;;;26.17;;
55330;SDS011;58851;42.984;20.336;2023-01-24T15:22:35;29.27;;;22.90;;
55330;SDS011;58851;42.984;20.336;2023-01-24T15:25:02;37.35;;;26.27;;
55330;SDS011;58851;42.984;20.336;2023-01-24T15:30:17;25.45;;;20.30;;
55330;SDS011;58851;42.984;20.336;2023-01-24T15:35:28;26.02;;;19.02;;
55330;SDS011;58851;42.984;20.336;2023-01-24T15:38:14;21.67;;;18.00;;
55330;SDS011;58851;42.984;20.336;2023-01-24T15:43:33;29.85;;;20.92;;
55330;SDS011;58851;42.984;20.336;2023-01-24T15:46:23;26.80;;;19.25;;
55330;SDS011;58851;42.984;20.336;2023-01-24T15:51:43;49.90;;;35.20;;
55330;SDS011;58851;42.984;20.336;2023-01-24T15:54:10;38.00;;;30.23;;
55330;SDS011;58851;42.984;20.336;2023-01-24T15:56:38;35.65;;;24.88;;
55330;SDS011;58851;42.984;20.336;2023-01-24T15:59:09;41.55;;;30.23;;
55330;SDS011;58851;42.984;20.336;2023-01-24T16:01:42;33.67;;;24.35;;
55330;SDS011;58851;42.984;20.336;2023-01-24T16:04:12;36.40;;;27.33;;
55330;SDS011;58851;42.984;20.336;2023-01-24T16:06:42;43.65;;;29.77;;
55330;SDS011;58851;42.984;20.336;2023-01-24T16:09:08;44.03;;;30.10;;
55330;SDS011;58851;42.984;20.336;2023-01-24T16:11:38;45.83;;;30.27;;
55330;SDS011;58851;42.984;20.336;2023-01-24T16:14:06;49.08;;;33.92;;
55330;SDS011;58851;42.984;20.336;2023-01-24T16:16:35;47.03;;;34.50;;
55330;SDS011;58851;42.984;20.336;2023-01-24T16:19:01;51.80;;;31.63;;
55330;SDS011;58851;42.984;20.336;2023-01-24T16:21:27;52.42;;;36.10;;
55330;SDS011;58851;42.984;20.336;2023-01-24T16:23:52;51.40;;;35.20;;
55330;SDS011;58851;42.984;20.336;2023-01-24T16:26:22;42.10;;;29.67;;
55330;SDS011;58851;42.984;20.336;2023-01-24T16:28:49;43.47;;;28.55;;
55330;SDS011;58851;42.984;20.336;2023-01-24T16:31:15;37.58;;;23.05;;
55330;SDS011;58851;42.984;20.336;2023-01-24T16:33:41;38.15;;;26.00;;
55330;SDS011;58851;42.984;20.336;2023-01-24T16:36:11;56.28;;;37.15;;
55330;SDS011;58851;42.984;20.336;2023-01-24T16:38:42;68.57;;;42.72;;
55330;SDS011;58851;42.984;20.336;2023-01-24T16:41:09;49.10;;;33.20;;
55330;SDS011;58851;42.984;20.336;2023-01-24T16:43:35;45.28;;;31.85;;
55330;SDS011;58851;42.984;20.336;2023-01-24T16:46:01;40.53;;;28.27;;
55330;SDS011;58851;42.984;20.336;2023-01-24T16:48:27;32.00;;;20.85;;
55330;SDS011;58851;42.984;20.336;2023-01-24T16:50:56;30.63;;;20.50;;
55330;SDS011;58851;42.984;20.336;2023-01-24T16:53:22;41.40;;;25.90;;
55330;SDS011;58851;42.984;20.336;2023-01-24T16:55:54;29.33;;;21.08;;
55330;SDS011;58851;42.984;20.336;2023-01-24T16:58:21;29.95;;;22.40;;
55330;SDS011;58851;42.984;20.336;2023-01-24T17:00:47;30.75;;;22.83;;
55330;SDS011;58851;42.984;20.336;2023-01-24T17:03:13;32.22;;;22.50;;
55330;SDS011;58851;42.984;20.336;2023-01-24T17:05:39;27.52;;;17.05;;
55330;SDS011;58851;42.984;20.336;2023-01-24T17:08:05;40.00;;;28.50;;